Booue Airport


Codes: FOGB/BGB
Name: Booue Airport
City: Booue
Country: Gabon
Elevation: 604 ft.

Photos at Booue Airport


   Photos courtesy of SpottingLog. You can add your own sightings and photos by signing up for a free trial today.



No photos found.

Weather at Booue Airport


Time (UTC)DescriptionTempratureWindCloud coverageVisibilityPressureHumidity
26-Jun-2024 00:00Light Rain24°C2 mph, W100%10000m1011hPa96%
26-Jun-2024 03:00Overcast Clouds23°C2 mph, NW100%10000m1011hPa97%
26-Jun-2024 06:00Overcast Clouds23°C2 mph, NW100%10000m1012hPa97%
26-Jun-2024 09:00Overcast Clouds27°C4 mph, NW99%10000m1013hPa77%
26-Jun-2024 12:00Overcast Clouds30°C2 mph, W97%10000m1010hPa64%
26-Jun-2024 15:00Scattered Clouds31°C2 mph, SW49%10000m1008hPa56%
26-Jun-2024 18:00Light Rain24°C2 mph, W59%10000m1011hPa92%
26-Jun-2024 21:00Overcast Clouds24°C2 mph, W90%10000m1013hPa95%
27-Jun-2024 00:00Overcast Clouds23°C4 mph, W86%10000m1012hPa96%
27-Jun-2024 03:00Broken Clouds23°C2 mph, W83%10000m1011hPa97%
27-Jun-2024 06:00Broken Clouds23°C2 mph, NW84%10000m1012hPa95%
27-Jun-2024 09:00Overcast Clouds26°C4 mph, W94%10000m1013hPa77%
27-Jun-2024 12:00Overcast Clouds30°C2 mph, W92%10000m1011hPa60%
27-Jun-2024 15:00Light Rain30°C2 mph, SW76%10000m1009hPa60%
27-Jun-2024 18:00Light Rain24°C2 mph, W85%10000m1011hPa91%
27-Jun-2024 21:00Broken Clouds23°C2 mph, W68%10000m1013hPa94%
28-Jun-2024 00:00Broken Clouds23°C2 mph, W57%10000m1012hPa97%
28-Jun-2024 03:00Broken Clouds22°C2 mph, W70%10000m1012hPa99%
28-Jun-2024 06:00Broken Clouds23°C2 mph, NW84%10000m1013hPa96%
28-Jun-2024 09:00Overcast Clouds24°C4 mph, NW99%10000m1014hPa85%
28-Jun-2024 12:00Overcast Clouds28°C4 mph, W99%10000m1012hPa65%
28-Jun-2024 15:00Light Rain27°C4 mph, W100%10000m1010hPa75%
28-Jun-2024 18:00Light Rain24°C2 mph, W100%10000m1012hPa88%
28-Jun-2024 21:00Overcast Clouds23°C2 mph, W100%10000m1013hPa93%
29-Jun-2024 00:00Overcast Clouds22°C2 mph, W100%10000m1013hPa96%
29-Jun-2024 03:00Overcast Clouds21°C2 mph, W100%10000m1012hPa98%
29-Jun-2024 06:00Overcast Clouds22°C2 mph, NW99%10000m1014hPa94%
29-Jun-2024 09:00Overcast Clouds26°C4 mph, W100%10000m1014hPa73%
29-Jun-2024 12:00Overcast Clouds31°C4 mph, W98%10000m1012hPa54%
29-Jun-2024 15:00Overcast Clouds30°C2 mph, W100%10000m1010hPa58%
29-Jun-2024 18:00Overcast Clouds26°C2 mph, W98%10000m1012hPa73%
29-Jun-2024 21:00Overcast Clouds25°C2 mph, W100%10000m1013hPa77%
30-Jun-2024 00:00Overcast Clouds23°C2 mph, W100%10000m1013hPa86%
30-Jun-2024 03:00Overcast Clouds22°C2 mph, NW100%10000m1013hPa92%
30-Jun-2024 06:00Overcast Clouds22°C2 mph, NW98%10000m1014hPa89%
30-Jun-2024 09:00Overcast Clouds27°C2 mph, W97%10000m1015hPa63%
30-Jun-2024 12:00Broken Clouds32°C2 mph, W63%10000m1012hPa48%
30-Jun-2024 15:00Few Clouds32°C2 mph, W20%10000m1009hPa47%
30-Jun-2024 18:00Scattered Clouds26°C2 mph, NW30%10000m1011hPa69%
30-Jun-2024 21:00Scattered Clouds24°C2 mph, W41%10000m1013hPa76%